createdAt,value
2022-11-30T00:01:10.006Z,5.37
2022-11-30T00:03:37.868Z,5.60
2022-11-30T00:06:05.821Z,5.90
2022-11-30T00:08:34.683Z,5.77
2022-11-30T00:11:02.163Z,4.80
2022-11-30T00:13:29.603Z,4.90
2022-11-30T00:16:01.554Z,5.67
2022-11-30T00:18:29.050Z,5.33
2022-11-30T00:20:59.799Z,5.67
2022-11-30T00:23:27.315Z,5.40
2022-11-30T00:25:56.117Z,5.43
2022-11-30T00:28:23.582Z,5.90
2022-11-30T00:30:57.794Z,5.13
2022-11-30T00:33:25.716Z,5.17
2022-11-30T00:35:59.421Z,5.40
2022-11-30T00:38:26.953Z,5.23
2022-11-30T00:40:56.676Z,5.20
2022-11-30T00:43:24.156Z,5.37
2022-11-30T00:45:51.634Z,5.53
2022-11-30T00:48:19.235Z,5.70
2022-11-30T00:50:46.642Z,5.50
2022-11-30T00:53:14.133Z,5.70
2022-11-30T00:55:41.589Z,5.20
2022-11-30T00:58:10.438Z,5.90
2022-11-30T01:00:37.858Z,5.77
2022-11-30T01:03:05.313Z,5.70
2022-11-30T01:05:33.364Z,5.80
2022-11-30T01:08:01.602Z,5.30
2022-11-30T01:10:29.109Z,5.60
2022-11-30T01:12:56.663Z,5.70
2022-11-30T01:15:25.458Z,5.80
2022-11-30T01:17:53.676Z,5.50
2022-11-30T01:20:21.102Z,5.33
2022-11-30T01:22:48.670Z,5.67
2022-11-30T01:25:16.232Z,5.53
2022-11-30T01:27:43.700Z,5.20
2022-11-30T01:30:11.692Z,5.47
2022-11-30T01:32:40.523Z,5.30
2022-11-30T01:35:08.921Z,5.67
2022-11-30T01:37:36.378Z,5.50
2022-11-30T01:40:04.017Z,6.13
2022-11-30T01:42:32.870Z,5.57
2022-11-30T01:45:00.986Z,5.63
2022-11-30T01:47:29.783Z,5.67
2022-11-30T01:50:00.445Z,5.77
2022-11-30T01:52:30.007Z,5.73
2022-11-30T01:54:59.721Z,5.57
2022-11-30T01:57:30.621Z,5.97
2022-11-30T02:00:00.091Z,5.77
2022-11-30T02:02:31.658Z,6.13
2022-11-30T02:05:00.801Z,5.27
2022-11-30T02:07:28.392Z,5.50
2022-11-30T02:09:55.926Z,5.23
2022-11-30T02:12:26.284Z,5.80
2022-11-30T02:14:55.734Z,5.83
2022-11-30T02:17:26.701Z,5.60
2022-11-30T02:20:13.242Z,5.87
2022-11-30T02:22:47.668Z,5.80
2022-11-30T02:25:19.497Z,5.87
2022-11-30T02:27:54.646Z,5.97
2022-11-30T02:30:24.057Z,6.27
2022-11-30T02:32:54.975Z,6.00
2022-11-30T02:35:24.948Z,5.50
2022-11-30T02:37:54.218Z,5.50
2022-11-30T02:40:22.235Z,5.87
2022-11-30T02:42:51.137Z,5.80
2022-11-30T02:45:20.508Z,5.67
2022-11-30T02:47:55.750Z,5.73
2022-11-30T02:50:24.907Z,6.03
2022-11-30T02:52:52.655Z,5.77
2022-11-30T02:55:20.743Z,5.63
2022-11-30T02:57:48.284Z,6.03
2022-11-30T03:00:16.531Z,5.53
2022-11-30T03:02:44.155Z,5.53
2022-11-30T03:05:12.982Z,5.43
2022-11-30T03:07:40.481Z,5.80
2022-11-30T03:10:08.787Z,6.20
2022-11-30T03:12:36.304Z,6.40
2022-11-30T03:15:03.946Z,5.93
2022-11-30T03:17:31.406Z,6.13
2022-11-30T03:19:58.862Z,6.60
2022-11-30T03:22:27.716Z,6.50
2022-11-30T03:24:55.169Z,6.40
2022-11-30T03:27:22.728Z,6.77
2022-11-30T03:29:50.138Z,6.23
2022-11-30T03:32:17.625Z,6.20
2022-11-30T03:34:45.365Z,6.33
2022-11-30T03:37:13.083Z,6.20
2022-11-30T03:39:41.898Z,7.00
2022-11-30T03:42:09.370Z,6.87
2022-11-30T03:44:36.853Z,6.43
2022-11-30T03:47:04.289Z,6.67
2022-11-30T03:49:31.753Z,6.77
2022-11-30T03:51:59.257Z,6.67
2022-11-30T03:54:26.717Z,6.93
2022-11-30T03:56:55.504Z,6.60
2022-11-30T03:59:22.985Z,6.43
2022-11-30T04:01:50.526Z,7.10
2022-11-30T04:04:18.029Z,6.30
2022-11-30T04:06:45.484Z,6.80
2022-11-30T04:09:13.114Z,6.67
2022-11-30T04:11:40.712Z,6.50
2022-11-30T04:14:10.038Z,6.90
2022-11-30T04:16:37.475Z,6.73
2022-11-30T04:19:05.114Z,7.20
2022-11-30T04:21:32.613Z,6.40
2022-11-30T04:24:00.043Z,6.30
2022-11-30T04:26:27.967Z,6.77
2022-11-30T04:28:55.414Z,6.17
2022-11-30T04:31:24.223Z,7.27
2022-11-30T04:33:53.671Z,7.10
2022-11-30T04:36:21.286Z,7.00
2022-11-30T04:38:48.993Z,6.73
2022-11-30T04:41:16.631Z,6.70
2022-11-30T04:43:44.063Z,6.87
2022-11-30T04:46:11.655Z,6.83
2022-11-30T04:48:40.498Z,6.50
2022-11-30T04:51:08.599Z,7.57
2022-11-30T04:53:37.125Z,6.60
2022-11-30T04:56:05.590Z,6.83
2022-11-30T04:58:33.015Z,6.83
2022-11-30T05:01:00.486Z,7.37
2022-11-30T05:03:27.936Z,7.50
2022-11-30T05:05:56.726Z,6.87
2022-11-30T05:08:24.432Z,7.23
2022-11-30T05:10:53.284Z,7.50
2022-11-30T05:13:21.011Z,7.50
2022-11-30T05:15:48.497Z,7.00
2022-11-30T05:18:16.619Z,7.73
2022-11-30T05:20:48.072Z,8.00
2022-11-30T05:23:17.125Z,7.33
2022-11-30T05:25:45.763Z,7.60
2022-11-30T05:28:13.405Z,8.73
2022-11-30T05:30:40.935Z,7.67
2022-11-30T05:33:08.421Z,7.63
2022-11-30T05:35:35.899Z,7.83
2022-11-30T05:38:03.398Z,9.80
2022-11-30T05:40:32.634Z,10.63
2022-11-30T05:43:00.792Z,13.07
2022-11-30T05:45:28.370Z,13.67
2022-11-30T05:47:55.794Z,14.17
2022-11-30T05:50:23.314Z,15.43
2022-11-30T05:52:53.717Z,15.33
2022-11-30T05:55:21.200Z,14.30
2022-11-30T05:57:50.009Z,15.47
2022-11-30T06:00:17.907Z,14.60
2022-11-30T06:02:45.426Z,13.27
2022-11-30T06:05:13.494Z,14.60
2022-11-30T06:07:41.006Z,14.07
2022-11-30T06:10:09.098Z,14.87
2022-11-30T06:12:36.523Z,14.20
2022-11-30T06:15:05.691Z,14.43
2022-11-30T06:17:33.154Z,13.53
2022-11-30T06:20:00.679Z,14.60
2022-11-30T06:22:28.121Z,13.90
2022-11-30T06:24:55.578Z,15.33
2022-11-30T06:27:23.056Z,13.80
2022-11-30T06:29:50.566Z,14.93
2022-11-30T06:32:19.405Z,15.57
2022-11-30T06:34:47.219Z,15.73
2022-11-30T06:37:14.971Z,14.37
2022-11-30T06:40:05.372Z,14.57
2022-11-30T06:42:30.041Z,13.40
2022-11-30T06:44:57.527Z,14.67
2022-11-30T06:47:26.416Z,13.30
2022-11-30T06:49:54.634Z,13.43
2022-11-30T06:52:22.142Z,14.27
2022-11-30T06:54:49.926Z,13.17
2022-11-30T06:57:17.519Z,13.53
2022-11-30T06:59:46.506Z,13.20
2022-11-30T07:02:17.738Z,13.43
2022-11-30T07:04:47.632Z,13.10
2022-11-30T07:07:15.285Z,13.67
2022-11-30T07:09:42.759Z,13.87
2022-11-30T07:12:10.260Z,13.83
2022-11-30T07:14:37.706Z,13.70
2022-11-30T07:17:05.742Z,14.10
2022-11-30T07:19:34.106Z,13.80
2022-11-30T07:22:03.078Z,14.13
2022-11-30T07:24:48.523Z,14.03
2022-11-30T07:27:16.187Z,14.27
2022-11-30T07:29:43.657Z,14.30
2022-11-30T07:32:11.212Z,15.13
2022-11-30T07:34:38.892Z,14.90
2022-11-30T07:37:07.755Z,15.20
2022-11-30T07:39:35.219Z,15.20
2022-11-30T07:42:02.917Z,14.57
2022-11-30T07:44:30.379Z,14.23
2022-11-30T07:46:57.825Z,15.87
2022-11-30T07:49:25.305Z,15.47
2022-11-30T07:51:52.760Z,15.50
2022-11-30T07:54:21.595Z,15.50
2022-11-30T07:56:49.027Z,16.43
2022-11-30T07:59:16.598Z,15.07
2022-11-30T08:01:44.141Z,14.97
2022-11-30T08:04:13.823Z,15.77
2022-11-30T08:06:41.460Z,15.23
2022-11-30T08:09:08.910Z,15.70
2022-11-30T08:11:37.749Z,15.73
2022-11-30T08:14:05.615Z,14.50
2022-11-30T08:16:36.237Z,14.73
2022-11-30T08:19:03.756Z,14.50
2022-11-30T08:21:32.268Z,14.53
2022-11-30T08:23:59.782Z,15.40
2022-11-30T08:26:28.229Z,14.70
2022-11-30T08:28:57.653Z,16.00
2022-11-30T08:31:26.563Z,15.40
2022-11-30T08:33:56.157Z,15.30
2022-11-30T08:36:24.644Z,15.43
2022-11-30T08:38:52.345Z,15.43
2022-11-30T08:41:21.154Z,15.00
2022-11-30T08:43:49.237Z,14.80
2022-11-30T08:46:49.806Z,14.90
2022-11-30T08:49:23.527Z,14.83
2022-11-30T08:54:42.320Z,13.60
2022-11-30T08:57:09.809Z,13.93
2022-11-30T08:59:37.412Z,14.00
2022-11-30T09:02:06.339Z,13.57
2022-11-30T09:04:33.859Z,13.60
2022-11-30T09:07:01.338Z,12.87
2022-11-30T09:09:28.890Z,12.87
2022-11-30T09:11:56.325Z,13.90
2022-11-30T09:14:23.813Z,13.00
2022-11-30T09:16:51.286Z,12.23
2022-11-30T09:19:20.268Z,12.47
2022-11-30T09:21:51.851Z,12.60
2022-11-30T09:24:20.102Z,11.93
2022-11-30T09:26:47.597Z,11.53
2022-11-30T09:29:15.066Z,9.67
2022-11-30T09:31:42.610Z,9.00
2022-11-30T09:34:11.777Z,8.80
2022-11-30T09:36:40.951Z,8.17
2022-11-30T09:39:10.310Z,8.40
2022-11-30T09:41:50.538Z,8.70
2022-11-30T09:44:20.440Z,7.90
2022-11-30T09:46:50.536Z,7.80
2022-11-30T09:49:19.838Z,6.90
2022-11-30T09:51:49.502Z,6.27
2022-11-30T09:54:18.011Z,5.67
2022-11-30T09:56:45.982Z,6.10
2022-11-30T09:59:17.029Z,6.23
2022-11-30T10:01:46.216Z,6.20
2022-11-30T10:04:20.367Z,5.97
2022-11-30T10:06:53.168Z,5.17
2022-11-30T10:09:26.800Z,4.93
2022-11-30T10:11:59.274Z,5.07
2022-11-30T10:14:41.610Z,4.67
2022-11-30T10:17:17.704Z,4.97
2022-11-30T10:19:54.671Z,4.87
2022-11-30T10:22:27.484Z,5.17
2022-11-30T10:25:12.425Z,5.10
2022-11-30T10:27:47.260Z,5.07
2022-11-30T10:30:16.847Z,4.53
2022-11-30T10:32:45.933Z,4.90
2022-11-30T10:35:17.416Z,4.73
2022-11-30T10:37:46.611Z,4.70
2022-11-30T10:40:15.626Z,4.67
2022-11-30T10:42:45.091Z,4.60
2022-11-30T10:45:14.429Z,4.67
2022-11-30T10:47:44.078Z,4.50
2022-11-30T10:50:14.678Z,5.20
2022-11-30T10:52:44.903Z,5.67
2022-11-30T10:55:18.756Z,5.20
2022-11-30T10:57:47.839Z,5.40
2022-11-30T11:00:16.720Z,5.37
2022-11-30T11:02:45.758Z,5.10
2022-11-30T11:05:16.420Z,5.00
2022-11-30T11:07:47.477Z,4.63
2022-11-30T11:10:17.443Z,4.53
2022-11-30T11:12:47.831Z,4.33
2022-11-30T11:15:19.292Z,5.83
2022-11-30T11:17:46.821Z,5.07
2022-11-30T11:20:31.371Z,5.27
2022-11-30T11:22:58.957Z,5.23
2022-11-30T11:25:30.794Z,5.20
2022-11-30T11:28:01.500Z,5.17
2022-11-30T11:30:30.156Z,5.40
2022-11-30T11:33:01.363Z,5.17
2022-11-30T11:35:36.777Z,5.37
2022-11-30T11:38:05.237Z,5.63
2022-11-30T11:40:34.566Z,5.93
2022-11-30T11:43:03.907Z,6.03
2022-11-30T11:45:33.814Z,5.57
2022-11-30T11:48:02.579Z,5.10
2022-11-30T11:53:25.959Z,6.30
2022-11-30T11:55:57.330Z,6.17
2022-11-30T11:58:29.648Z,6.67
2022-11-30T12:01:16.825Z,7.73
2022-11-30T12:03:47.771Z,7.60
2022-11-30T12:06:16.523Z,8.10
2022-11-30T12:08:47.403Z,8.53
2022-11-30T12:11:18.693Z,8.87
2022-11-30T12:13:46.900Z,8.70
2022-11-30T12:16:21.247Z,8.50
2022-11-30T12:18:52.753Z,8.70
2022-11-30T12:21:25.552Z,9.30
2022-11-30T12:24:11.030Z,8.63
2022-11-30T12:26:42.789Z,8.83
2022-11-30T12:29:24.541Z,8.80
2022-11-30T12:32:07.580Z,8.80
2022-11-30T12:34:45.567Z,8.47
2022-11-30T12:37:15.978Z,8.73
2022-11-30T12:39:46.024Z,9.23
2022-11-30T12:42:16.400Z,8.67
2022-11-30T12:44:47.983Z,8.50
2022-11-30T12:47:22.145Z,8.67
2022-11-30T12:49:53.766Z,9.27
2022-11-30T12:52:30.779Z,9.30
2022-11-30T12:55:04.922Z,9.30
2022-11-30T12:57:36.094Z,8.83
2022-11-30T13:00:07.598Z,9.10
2022-11-30T13:02:41.597Z,9.47
2022-11-30T13:05:12.488Z,8.93
2022-11-30T13:07:42.746Z,9.47
2022-11-30T13:10:18.345Z,8.80
2022-11-30T13:12:48.791Z,8.20
2022-11-30T13:15:18.665Z,8.87
2022-11-30T13:17:46.578Z,8.70
2022-11-30T13:20:17.866Z,8.03
2022-11-30T13:22:49.215Z,8.23
2022-11-30T13:25:19.509Z,7.60
2022-11-30T13:27:56.966Z,8.10
2022-11-30T13:30:29.465Z,8.37
2022-11-30T13:32:58.487Z,8.87
2022-11-30T13:35:42.475Z,8.33
2022-11-30T13:38:36.469Z,8.00
2022-11-30T13:41:08.778Z,8.13
2022-11-30T13:43:41.287Z,8.63
2022-11-30T13:46:15.003Z,8.30
2022-11-30T13:48:42.921Z,8.33
2022-11-30T13:51:10.532Z,8.40
2022-11-30T13:53:38.997Z,8.30
2022-11-30T13:56:21.360Z,7.83
2022-11-30T13:59:07.263Z,7.63
2022-11-30T14:01:36.110Z,8.13
2022-11-30T14:04:36.877Z,7.93
2022-11-30T14:07:34.323Z,7.80
2022-11-30T14:10:02.198Z,8.77
2022-11-30T14:12:40.065Z,8.20
2022-11-30T14:15:27.172Z,7.80
2022-11-30T14:17:58.114Z,7.10
2022-11-30T14:20:27.869Z,7.53
2022-11-30T14:22:55.405Z,7.77
2022-11-30T14:25:22.980Z,7.93
2022-11-30T14:27:53.751Z,7.80
2022-11-30T14:30:22.481Z,6.97
2022-11-30T14:32:52.369Z,7.00
2022-11-30T14:35:21.672Z,7.67
2022-11-30T14:37:53.337Z,8.47
2022-11-30T14:40:22.140Z,7.43
2022-11-30T14:42:51.434Z,7.37
2022-11-30T14:45:20.744Z,7.43
2022-11-30T14:47:51.446Z,7.10
2022-11-30T14:50:22.806Z,7.40
2022-11-30T14:52:55.370Z,7.03
2022-11-30T14:55:28.450Z,7.00
2022-11-30T14:58:05.576Z,7.37
2022-11-30T15:00:37.450Z,7.00
2022-11-30T15:03:08.302Z,6.90
2022-11-30T15:05:43.007Z,8.13
2022-11-30T15:08:12.809Z,7.00
2022-11-30T15:10:40.423Z,8.07
2022-11-30T15:13:14.709Z,8.13
2022-11-30T15:15:50.846Z,7.67
2022-11-30T15:18:19.310Z,8.13
2022-11-30T15:20:52.211Z,8.20
2022-11-30T15:23:19.885Z,8.30
2022-11-30T15:25:48.414Z,8.23
2022-11-30T15:28:18.851Z,8.40
2022-11-30T15:30:47.824Z,8.60
2022-11-30T15:33:17.981Z,8.23
2022-11-30T15:36:13.712Z,8.37
2022-11-30T15:38:36.503Z,9.03
2022-11-30T15:41:05.154Z,8.73
2022-11-30T15:43:36.269Z,9.17
2022-11-30T15:46:04.072Z,8.67
2022-11-30T15:48:32.373Z,9.23
2022-11-30T15:51:00.390Z,8.90
2022-11-30T15:53:32.703Z,8.73
2022-11-30T15:56:02.846Z,8.70
2022-11-30T15:58:31.841Z,8.90
2022-11-30T16:01:00.439Z,9.47
2022-11-30T16:03:27.906Z,9.33
2022-11-30T16:05:56.873Z,9.40
2022-11-30T16:08:24.371Z,10.13
2022-11-30T16:10:51.869Z,10.23
2022-11-30T16:13:22.464Z,10.20
2022-11-30T16:15:50.598Z,10.13
2022-11-30T16:18:18.982Z,9.60
2022-11-30T16:20:48.199Z,10.03
2022-11-30T16:23:16.405Z,10.13
2022-11-30T16:25:44.231Z,9.50
2022-11-30T16:28:12.706Z,10.23
2022-11-30T16:30:42.044Z,15.00
2022-11-30T16:33:13.008Z,15.70
2022-11-30T16:35:42.070Z,10.73
2022-11-30T16:38:09.789Z,12.30
2022-11-30T16:40:39.195Z,12.23
2022-11-30T16:43:06.826Z,9.87
2022-11-30T16:45:36.101Z,10.13
2022-11-30T16:48:05.159Z,10.77
2022-11-30T16:50:34.619Z,10.57
2022-11-30T16:53:02.798Z,9.97
2022-11-30T16:55:31.261Z,9.70
2022-11-30T16:57:58.924Z,11.07
2022-11-30T17:00:26.431Z,10.80
2022-11-30T17:02:56.658Z,10.43
2022-11-30T17:05:25.752Z,10.77
2022-11-30T17:07:53.231Z,10.53
2022-11-30T17:10:21.386Z,10.37
2022-11-30T17:12:48.945Z,10.37
2022-11-30T17:15:18.137Z,10.13
2022-11-30T17:17:46.035Z,10.77
2022-11-30T17:20:14.465Z,11.03
2022-11-30T17:22:43.919Z,10.37
2022-11-30T17:25:14.043Z,10.67
2022-11-30T17:27:41.470Z,11.17
2022-11-30T17:30:09.430Z,10.50
2022-11-30T17:32:36.862Z,10.83
2022-11-30T17:35:04.472Z,11.03
2022-11-30T17:37:31.896Z,11.00
2022-11-30T17:40:00.725Z,11.00
2022-11-30T17:42:28.371Z,11.17
2022-11-30T17:44:55.978Z,11.60
2022-11-30T17:47:23.422Z,12.20
2022-11-30T17:49:50.926Z,12.20
2022-11-30T17:52:18.402Z,12.70
2022-11-30T17:54:46.119Z,12.23
2022-11-30T17:57:15.096Z,13.17
2022-11-30T17:59:42.540Z,11.73
2022-11-30T18:02:10.505Z,12.97
2022-11-30T18:04:38.046Z,14.67
2022-11-30T18:07:05.506Z,13.27
2022-11-30T18:09:36.581Z,12.57
2022-11-30T18:12:07.017Z,12.17
2022-11-30T18:14:35.806Z,12.40
2022-11-30T18:17:03.362Z,11.50
2022-11-30T18:19:30.865Z,11.37
2022-11-30T18:21:58.302Z,11.70
2022-11-30T18:24:26.078Z,11.03
2022-11-30T18:26:53.708Z,12.03
2022-11-30T18:29:21.507Z,11.63
2022-11-30T18:31:51.459Z,11.20
2022-11-30T18:34:18.969Z,11.10
2022-11-30T18:36:46.481Z,10.97
2022-11-30T18:39:14.112Z,10.90
2022-11-30T18:41:41.786Z,11.07
2022-11-30T18:44:10.127Z,11.83
2022-11-30T18:46:37.585Z,19.93
2022-11-30T18:49:07.004Z,13.93
2022-11-30T18:51:34.493Z,12.13
2022-11-30T18:54:03.273Z,11.73
2022-11-30T18:56:31.698Z,12.07
2022-11-30T18:59:00.111Z,12.73
2022-11-30T19:01:28.966Z,12.97
2022-11-30T19:03:57.100Z,11.73
2022-11-30T19:06:28.238Z,10.57
2022-11-30T19:08:55.734Z,12.40
2022-11-30T19:11:23.422Z,9.67
2022-11-30T19:13:54.338Z,10.33
2022-11-30T19:16:21.971Z,9.70
2022-11-30T19:18:49.540Z,9.37
2022-11-30T19:21:18.833Z,9.63
2022-11-30T19:23:47.885Z,10.40
2022-11-30T19:26:15.816Z,9.47
2022-11-30T19:28:44.083Z,11.37
2022-11-30T19:31:12.493Z,8.50
2022-11-30T19:33:40.756Z,10.10
2022-11-30T19:36:09.472Z,8.43
2022-11-30T19:38:36.922Z,8.47
2022-11-30T19:41:09.495Z,8.20
2022-11-30T19:43:37.043Z,8.33
2022-11-30T19:46:05.126Z,8.03
2022-11-30T19:48:32.626Z,8.90
2022-11-30T19:51:00.102Z,8.83
2022-11-30T19:53:28.877Z,8.40
2022-11-30T19:55:56.333Z,8.27
2022-11-30T19:58:25.192Z,8.33
2022-11-30T20:00:52.641Z,8.50
2022-11-30T20:03:20.117Z,9.30
2022-11-30T20:05:50.814Z,7.87
2022-11-30T20:08:18.704Z,7.80
2022-11-30T20:10:46.337Z,8.27
2022-11-30T20:13:13.857Z,9.03
2022-11-30T20:15:42.738Z,8.40
2022-11-30T20:18:10.389Z,9.37
2022-11-30T20:20:37.850Z,9.03
2022-11-30T20:23:05.493Z,9.33
2022-11-30T20:25:33.520Z,9.03
2022-11-30T20:28:00.959Z,8.80
2022-11-30T20:30:28.539Z,8.67
2022-11-30T20:32:57.410Z,10.07
2022-11-30T20:35:24.988Z,10.80
2022-11-30T20:37:52.469Z,10.90
2022-11-30T20:40:20.033Z,9.57
2022-11-30T20:42:47.502Z,9.87
2022-11-30T20:45:14.971Z,9.20
2022-11-30T20:47:42.368Z,8.87
2022-11-30T20:50:11.931Z,8.90
2022-11-30T20:52:39.390Z,8.47
2022-11-30T20:55:07.106Z,9.13
2022-11-30T20:57:34.557Z,8.80
2022-11-30T21:00:02.041Z,9.37
2022-11-30T21:02:29.611Z,9.33
2022-11-30T21:04:57.098Z,9.30
2022-11-30T21:07:26.246Z,8.97
2022-11-30T21:09:53.753Z,8.60
2022-11-30T21:12:21.206Z,9.30
2022-11-30T21:14:49.181Z,9.20
2022-11-30T21:17:16.849Z,9.27
2022-11-30T21:19:44.324Z,9.10
2022-11-30T21:22:12.023Z,9.93
2022-11-30T21:24:40.773Z,9.83
2022-11-30T21:27:08.278Z,9.97
2022-11-30T21:29:35.734Z,9.77
2022-11-30T21:32:03.189Z,9.73
2022-11-30T21:34:30.645Z,10.37
2022-11-30T21:36:58.082Z,9.63
2022-11-30T21:39:25.557Z,9.70
2022-11-30T21:41:54.370Z,10.43
2022-11-30T21:44:22.110Z,9.40
2022-11-30T21:46:50.293Z,9.57
2022-11-30T21:49:17.960Z,9.47
2022-11-30T21:51:45.473Z,10.20
2022-11-30T21:54:13.649Z,10.37
2022-11-30T21:56:42.487Z,10.07
2022-11-30T21:59:12.278Z,10.33
2022-11-30T22:01:40.453Z,10.00
2022-11-30T22:04:08.779Z,10.00
2022-11-30T22:06:37.392Z,10.00
2022-11-30T22:09:08.514Z,10.67
2022-11-30T22:11:36.749Z,10.03
2022-11-30T22:14:04.581Z,10.67
2022-11-30T22:16:36.532Z,10.77
2022-11-30T22:19:04.860Z,10.87
2022-11-30T22:21:32.285Z,10.37
2022-11-30T22:24:00.770Z,10.80
2022-11-30T22:26:29.022Z,10.37
2022-11-30T22:28:57.630Z,10.93
2022-11-30T22:31:26.210Z,10.73
2022-11-30T22:33:55.070Z,10.03
2022-11-30T22:36:23.595Z,10.07
2022-11-30T22:38:54.769Z,9.97
2022-11-30T22:41:22.569Z,11.60
2022-11-30T22:43:50.290Z,10.93
2022-11-30T22:46:18.940Z,11.10
2022-11-30T22:48:46.650Z,10.87
2022-11-30T22:51:16.475Z,11.03
2022-11-30T22:53:43.928Z,11.10
2022-11-30T22:56:12.641Z,10.83
2022-11-30T22:58:40.793Z,10.97
2022-11-30T23:01:09.442Z,11.23
2022-11-30T23:03:37.334Z,10.90
2022-11-30T23:06:05.232Z,10.57
2022-11-30T23:08:34.889Z,11.63
2022-11-30T23:11:03.305Z,11.63
2022-11-30T23:13:30.867Z,11.83
2022-11-30T23:15:59.816Z,11.60
2022-11-30T23:18:27.760Z,11.30
2022-11-30T23:20:55.713Z,12.13
2022-11-30T23:23:23.477Z,11.87
2022-11-30T23:25:52.297Z,11.53
2022-11-30T23:28:19.705Z,11.97
2022-11-30T23:30:47.161Z,12.63
2022-11-30T23:33:14.806Z,11.57
2022-11-30T23:35:43.690Z,11.73
2022-11-30T23:38:12.273Z,12.07
2022-11-30T23:40:39.748Z,12.13
2022-11-30T23:43:08.628Z,12.03
2022-11-30T23:45:36.067Z,12.87
2022-11-30T23:48:03.532Z,12.30
2022-11-30T23:50:30.996Z,11.70
2022-11-30T23:52:58.456Z,13.20
2022-11-30T23:55:25.878Z,12.57
2022-11-30T23:57:53.306Z,12.37
